sensor_id;sensor_type;location;lat;lon;timestamp;pressure;altitude;pressure_sealevel;temperature;humidity
23176;BME280;19910;42.652;23.332;2023-11-19T00:00:14;94565.28;;;3.28;88.65
23176;BME280;19910;42.652;23.332;2023-11-19T00:02:42;94564.19;;;3.29;88.18
23176;BME280;19910;42.652;23.332;2023-11-19T00:05:11;94558.53;;;3.36;87.99
23176;BME280;19910;42.652;23.332;2023-11-19T00:07:38;94558.81;;;3.34;87.59
23176;BME280;19910;42.652;23.332;2023-11-19T00:10:08;94567.88;;;3.38;87.85
23176;BME280;19910;42.652;23.332;2023-11-19T00:12:36;94563.03;;;3.40;87.86
23176;BME280;19910;42.652;23.332;2023-11-19T00:15:03;94565.19;;;3.38;87.56
23176;BME280;19910;42.652;23.332;2023-11-19T00:17:30;94562.56;;;3.33;87.47
23176;BME280;19910;42.652;23.332;2023-11-19T00:19:58;94566.19;;;3.42;87.71
23176;BME280;19910;42.652;23.332;2023-11-19T00:22:25;94570.03;;;3.36;87.63
23176;BME280;19910;42.652;23.332;2023-11-19T00:24:53;94553.69;;;3.38;87.50
23176;BME280;19910;42.652;23.332;2023-11-19T00:27:20;94579.53;;;3.47;87.29
23176;BME280;19910;42.652;23.332;2023-11-19T00:29:47;94566.19;;;3.42;86.71
23176;BME280;19910;42.652;23.332;2023-11-19T00:32:14;94555.50;;;3.42;87.01
23176;BME280;19910;42.652;23.332;2023-11-19T00:34:44;94564.63;;;3.41;87.06
23176;BME280;19910;42.652;23.332;2023-11-19T00:37:13;94580.69;;;3.41;87.03
23176;BME280;19910;42.652;23.332;2023-11-19T00:39:40;94581.25;;;3.38;87.01
23176;BME280;19910;42.652;23.332;2023-11-19T00:42:07;94578.63;;;3.33;87.32
23176;BME280;19910;42.652;23.332;2023-11-19T00:44:35;94573.28;;;3.33;87.46
23176;BME280;19910;42.652;23.332;2023-11-19T00:47:03;94580.75;;;3.36;87.69
23176;BME280;19910;42.652;23.332;2023-11-19T00:49:30;94578.06;;;3.36;87.76
23176;BME280;19910;42.652;23.332;2023-11-19T00:51:58;94577.03;;;3.32;87.55
23176;BME280;19910;42.652;23.332;2023-11-19T00:54:26;94575.44;;;3.31;87.51
23176;BME280;19910;42.652;23.332;2023-11-19T00:56:53;94577.25;;;3.36;87.90
23176;BME280;19910;42.652;23.332;2023-11-19T00:59:20;94560.16;;;3.32;87.69
23176;BME280;19910;42.652;23.332;2023-11-19T01:01:47;94579.97;;;3.31;87.69
23176;BME280;19910;42.652;23.332;2023-11-19T01:04:14;94584.53;;;3.30;87.90
23176;BME280;19910;42.652;23.332;2023-11-19T01:06:41;94587.16;;;3.35;87.92
23176;BME280;19910;42.652;23.332;2023-11-19T01:09:08;94579.59;;;3.42;87.62
23176;BME280;19910;42.652;23.332;2023-11-19T01:11:37;94586.63;;;3.38;87.69
23176;BME280;19910;42.652;23.332;2023-11-19T01:14:04;94590.38;;;3.37;87.49
23176;BME280;19910;42.652;23.332;2023-11-19T01:16:31;94595.16;;;3.40;87.49
23176;BME280;19910;42.652;23.332;2023-11-19T01:18:58;94591.09;;;3.43;87.66
23176;BME280;19910;42.652;23.332;2023-11-19T01:21:29;94583.41;;;3.36;87.55
23176;BME280;19910;42.652;23.332;2023-11-19T01:23:57;94588.22;;;3.39;87.61
23176;BME280;19910;42.652;23.332;2023-11-19T01:26:23;94579.59;;;3.42;87.66
23176;BME280;19910;42.652;23.332;2023-11-19T01:28:52;94581.25;;;3.38;87.28
23176;BME280;19910;42.652;23.332;2023-11-19T01:31:18;94581.28;;;3.33;87.50
23176;BME280;19910;42.652;23.332;2023-11-19T01:33:45;94588.78;;;3.36;87.69
23176;BME280;19910;42.652;23.332;2023-11-19T01:36:13;94593.09;;;3.32;87.39
23176;BME280;19910;42.652;23.332;2023-11-19T01:38:40;94589.44;;;3.23;87.35
23176;BME280;19910;42.652;23.332;2023-11-19T01:41:06;94587.28;;;3.25;86.91
23176;BME280;19910;42.652;23.332;2023-11-19T01:43:34;94585.13;;;3.27;87.13
23176;BME280;19910;42.652;23.332;2023-11-19T01:46:04;94578.97;;;3.27;87.14
23176;BME280;19910;42.652;23.332;2023-11-19T01:48:33;94582.47;;;3.22;87.14
23176;BME280;19910;42.652;23.332;2023-11-19T01:51:01;94594.25;;;3.21;86.78
23176;BME280;19910;42.652;23.332;2023-11-19T01:53:28;94599.66;;;3.16;86.71
23176;BME280;19910;42.652;23.332;2023-11-19T01:55:56;94595.91;;;3.17;86.08
23176;BME280;19910;42.652;23.332;2023-11-19T01:58:23;94599.91;;;3.19;86.43
23176;BME280;19910;42.652;23.332;2023-11-19T02:00:51;94608.75;;;3.15;86.11
23176;BME280;19910;42.652;23.332;2023-11-19T02:03:19;94614.34;;;3.18;86.10
23176;BME280;19910;42.652;23.332;2023-11-19T02:05:48;94618.91;;;3.18;86.18
23176;BME280;19910;42.652;23.332;2023-11-19T02:08:16;94606.88;;;3.15;86.40
23176;BME280;19910;42.652;23.332;2023-11-19T02:10:43;94599.16;;;3.14;86.05
23176;BME280;19910;42.652;23.332;2023-11-19T02:13:10;94592.16;;;3.18;85.78
23176;BME280;19910;42.652;23.332;2023-11-19T02:15:39;94592.94;;;3.18;85.67
23176;BME280;19910;42.652;23.332;2023-11-19T02:18:20;94588.41;;;3.19;86.04
23176;BME280;19910;42.652;23.332;2023-11-19T02:20:48;94584.13;;;3.18;85.29
23176;BME280;19910;42.652;23.332;2023-11-19T02:23:16;94594.88;;;3.13;85.21
23176;BME280;19910;42.652;23.332;2023-11-19T02:25:43;94586.78;;;3.18;85.06
23176;BME280;19910;42.652;23.332;2023-11-19T02:28:16;94602.06;;;3.17;85.24
23176;BME280;19910;42.652;23.332;2023-11-19T02:30:43;94591.69;;;3.11;84.98
23176;BME280;19910;42.652;23.332;2023-11-19T02:33:10;94589.22;;;3.14;84.71
23176;BME280;19910;42.652;23.332;2023-11-19T02:35:38;94579.63;;;3.13;85.58
23176;BME280;19910;42.652;23.332;2023-11-19T02:38:06;94568.19;;;3.03;85.07
23176;BME280;19910;42.652;23.332;2023-11-19T02:40:33;94580.84;;;2.97;85.55
23176;BME280;19910;42.652;23.332;2023-11-19T02:43:00;94585.94;;;2.94;86.13
23176;BME280;19910;42.652;23.332;2023-11-19T02:45:31;94580.13;;;2.87;86.15
23176;BME280;19910;42.652;23.332;2023-11-19T02:47:58;94579.91;;;2.83;86.69
23176;BME280;19910;42.652;23.332;2023-11-19T02:50:26;94597.53;;;2.84;86.82
23176;BME280;19910;42.652;23.332;2023-11-19T02:52:55;94604.25;;;2.81;86.33
23176;BME280;19910;42.652;23.332;2023-11-19T02:55:22;94586.09;;;2.73;87.10
23176;BME280;19910;42.652;23.332;2023-11-19T02:57:50;94590.38;;;2.74;87.50
23176;BME280;19910;42.652;23.332;2023-11-19T03:00:20;94581.63;;;2.64;87.58
23176;BME280;19910;42.652;23.332;2023-11-19T03:02:54;94566.94;;;2.61;87.87
23176;BME280;19910;42.652;23.332;2023-11-19T03:05:26;94584.63;;;2.57;87.88
23176;BME280;19910;42.652;23.332;2023-11-19T03:07:55;94580.91;;;2.53;87.94
23176;BME280;19910;42.652;23.332;2023-11-19T03:10:22;94568.53;;;2.62;88.86
23176;BME280;19910;42.652;23.332;2023-11-19T03:12:49;94587.78;;;2.64;87.33
23176;BME280;19910;42.652;23.332;2023-11-19T03:15:16;94586.19;;;2.63;87.29
23176;BME280;19910;42.652;23.332;2023-11-19T03:17:43;94580.81;;;2.68;86.98
23176;BME280;19910;42.652;23.332;2023-11-19T03:20:11;94578.66;;;2.70;87.00
23176;BME280;19910;42.652;23.332;2023-11-19T03:22:40;94582.69;;;2.68;87.02
23176;BME280;19910;42.652;23.332;2023-11-19T03:25:09;94588.34;;;2.61;87.19
23176;BME280;19910;42.652;23.332;2023-11-19T03:27:36;94566.38;;;2.64;87.38
23176;BME280;19910;42.652;23.332;2023-11-19T03:30:05;94587.50;;;2.66;87.29
23176;BME280;19910;42.652;23.332;2023-11-19T03:32:32;94582.50;;;2.59;87.34
23176;BME280;19910;42.652;23.332;2023-11-19T03:35:00;94584.38;;;2.59;87.32
23176;BME280;19910;42.652;23.332;2023-11-19T03:37:28;94588.38;;;2.56;87.45
23176;BME280;19910;42.652;23.332;2023-11-19T03:39:56;94589.22;;;2.52;88.10
23176;BME280;19910;42.652;23.332;2023-11-19T03:42:25;94594.56;;;2.52;88.08
23176;BME280;19910;42.652;23.332;2023-11-19T03:44:52;94591.09;;;2.51;88.11
23176;BME280;19910;42.652;23.332;2023-11-19T03:47:19;94603.09;;;2.54;88.01
23176;BME280;19910;42.652;23.332;2023-11-19T03:49:47;94607.34;;;2.60;88.08
23176;BME280;19910;42.652;23.332;2023-11-19T03:52:15;94620.19;;;2.58;88.02
23176;BME280;19910;42.652;23.332;2023-11-19T03:54:43;94617.47;;;2.63;88.01
23176;BME280;19910;42.652;23.332;2023-11-19T03:57:11;94621.47;;;2.65;87.90
23176;BME280;19910;42.652;23.332;2023-11-19T03:59:38;94618.81;;;2.60;87.83
23176;BME280;19910;42.652;23.332;2023-11-19T04:02:05;94613.44;;;2.65;87.64
23176;BME280;19910;42.652;23.332;2023-11-19T04:04:32;94622.59;;;2.59;87.93
23176;BME280;19910;42.652;23.332;2023-11-19T04:07:00;94621.00;;;2.58;87.85
23176;BME280;19910;42.652;23.332;2023-11-19T04:09:28;94627.97;;;2.54;88.48
23176;BME280;19910;42.652;23.332;2023-11-19T04:11:57;94624.97;;;2.61;87.58
23176;BME280;19910;42.652;23.332;2023-11-19T04:14:24;94630.00;;;2.67;87.83
23176;BME280;19910;42.652;23.332;2023-11-19T04:16:50;94627.88;;;2.69;87.75
23176;BME280;19910;42.652;23.332;2023-11-19T04:19:17;94644.16;;;2.73;87.27
23176;BME280;19910;42.652;23.332;2023-11-19T04:21:44;94626.75;;;2.75;87.39
23176;BME280;19910;42.652;23.332;2023-11-19T04:24:12;94627.81;;;2.74;87.01
23176;BME280;19910;42.652;23.332;2023-11-19T04:26:43;94624.59;;;2.77;86.89
23176;BME280;19910;42.652;23.332;2023-11-19T04:29:13;94617.63;;;2.76;86.92
23176;BME280;19910;42.652;23.332;2023-11-19T04:31:40;94620.84;;;2.78;86.67
23176;BME280;19910;42.652;23.332;2023-11-19T04:34:07;94636.59;;;2.85;86.23
23176;BME280;19910;42.652;23.332;2023-11-19T04:36:34;94626.69;;;2.85;86.10
23176;BME280;19910;42.652;23.332;2023-11-19T04:39:03;94644.00;;;2.93;85.96
23176;BME280;19910;42.652;23.332;2023-11-19T04:41:34;94647.72;;;2.97;86.08
23176;BME280;19910;42.652;23.332;2023-11-19T04:44:01;94646.69;;;2.93;85.44
23176;BME280;19910;42.652;23.332;2023-11-19T04:46:29;94645.84;;;2.98;85.59
23176;BME280;19910;42.652;23.332;2023-11-19T04:48:56;94657.66;;;2.92;85.17
23176;BME280;19910;42.652;23.332;2023-11-19T04:51:22;94653.94;;;2.88;85.50
23176;BME280;19910;42.652;23.332;2023-11-19T04:53:49;94653.94;;;2.88;85.38
23176;BME280;19910;42.652;23.332;2023-11-19T04:56:16;94650.19;;;2.89;85.38
23176;BME280;19910;42.652;23.332;2023-11-19T04:58:45;94638.47;;;2.79;85.34
23176;BME280;19910;42.652;23.332;2023-11-19T05:01:14;94656.59;;;2.88;85.01
23176;BME280;19910;42.652;23.332;2023-11-19T05:03:43;94660.31;;;2.92;84.77
23176;BME280;19910;42.652;23.332;2023-11-19T05:06:10;94666.22;;;2.94;84.58
23176;BME280;19910;42.652;23.332;2023-11-19T05:08:37;94679.59;;;2.94;84.28
23176;BME280;19910;42.652;23.332;2023-11-19T05:11:04;94685.97;;;2.98;84.49
23176;BME280;19910;42.652;23.332;2023-11-19T05:13:32;94696.97;;;2.96;84.11
23176;BME280;19910;42.652;23.332;2023-11-19T05:15:58;94697.25;;;2.90;84.17
23176;BME280;19910;42.652;23.332;2023-11-19T05:18:25;94693.50;;;2.91;84.31
23176;BME280;19910;42.652;23.332;2023-11-19T05:20:54;94692.72;;;2.90;84.34
23176;BME280;19910;42.652;23.332;2023-11-19T05:23:21;94695.63;;;2.94;84.53
23176;BME280;19910;42.652;23.332;2023-11-19T05:25:48;94689.47;;;2.93;84.63
23176;BME280;19910;42.652;23.332;2023-11-19T05:28:15;94684.94;;;2.89;84.61
23176;BME280;19910;42.652;23.332;2023-11-19T05:30:41;94680.69;;;2.88;84.54
23176;BME280;19910;42.652;23.332;2023-11-19T05:33:09;94670.50;;;2.90;84.12
23176;BME280;19910;42.652;23.332;2023-11-19T05:35:36;94685.47;;;2.96;84.78
23176;BME280;19910;42.652;23.332;2023-11-19T05:38:04;94687.34;;;2.90;84.98
23176;BME280;19910;42.652;23.332;2023-11-19T05:40:31;94679.94;;;2.82;84.63
23176;BME280;19910;42.652;23.332;2023-11-19T05:42:58;94690.31;;;2.89;84.64
23176;BME280;19910;42.652;23.332;2023-11-19T05:45:25;94703.66;;;2.94;84.84
23176;BME280;19910;42.652;23.332;2023-11-19T05:47:52;94695.09;;;2.92;84.67
23176;BME280;19910;42.652;23.332;2023-11-19T05:50:19;94698.59;;;2.87;85.06
23176;BME280;19910;42.652;23.332;2023-11-19T05:52:46;94706.94;;;2.85;84.94
23176;BME280;19910;42.652;23.332;2023-11-19T05:55:14;94682.81;;;2.91;84.80
23176;BME280;19910;42.652;23.332;2023-11-19T05:57:41;94696.72;;;2.93;85.01
23176;BME280;19910;42.652;23.332;2023-11-19T06:00:09;94686.09;;;2.82;84.64
23176;BME280;19910;42.652;23.332;2023-11-19T06:02:38;94690.88;;;2.85;85.39
23176;BME280;19910;42.652;23.332;2023-11-19T06:05:06;94695.66;;;2.89;84.85
23176;BME280;19910;42.652;23.332;2023-11-19T06:07:33;94706.34;;;2.89;84.76
23176;BME280;19910;42.652;23.332;2023-11-19T06:10:00;94716.50;;;2.92;85.02
23176;BME280;19910;42.652;23.332;2023-11-19T06:12:29;94728.25;;;2.96;84.88
23176;BME280;19910;42.652;23.332;2023-11-19T06:15:00;94724.53;;;2.92;84.68
23176;BME280;19910;42.652;23.332;2023-11-19T06:17:27;94728.00;;;2.92;84.65
23176;BME280;19910;42.652;23.332;2023-11-19T06:19:54;94722.66;;;2.92;84.63
23176;BME280;19910;42.652;23.332;2023-11-19T06:22:20;94712.56;;;2.84;85.24
23176;BME280;19910;42.652;23.332;2023-11-19T06:24:47;94709.63;;;2.80;85.29
23176;BME280;19910;42.652;23.332;2023-11-19T06:27:14;94720.00;;;2.87;85.55
23176;BME280;19910;42.652;23.332;2023-11-19T06:29:43;94706.94;;;2.85;85.34
23176;BME280;19910;42.652;23.332;2023-11-19T06:32:09;94706.44;;;2.78;85.17
23176;BME280;19910;42.652;23.332;2023-11-19T06:34:37;94725.69;;;2.80;85.13
23176;BME280;19910;42.652;23.332;2023-11-19T06:37:04;94697.31;;;2.79;85.04
23176;BME280;19910;42.652;23.332;2023-11-19T06:39:31;94709.06;;;2.83;85.69
23176;BME280;19910;42.652;23.332;2023-11-19T06:42:00;94717.63;;;2.85;85.25
23176;BME280;19910;42.652;23.332;2023-11-19T06:44:27;94712.50;;;2.89;85.14
23176;BME280;19910;42.652;23.332;2023-11-19T06:46:55;94699.38;;;2.93;84.96
23176;BME280;19910;42.652;23.332;2023-11-19T06:49:22;94708.38;;;3.07;85.35
23176;BME280;19910;42.652;23.332;2023-11-19T06:51:50;94705.25;;;3.29;85.03
23176;BME280;19910;42.652;23.332;2023-11-19T06:54:17;94709.44;;;3.11;84.10
23176;BME280;19910;42.652;23.332;2023-11-19T06:56:44;94711.69;;;2.94;83.64
23176;BME280;19910;42.652;23.332;2023-11-19T06:59:11;94716.84;;;2.85;84.01
23176;BME280;19910;42.652;23.332;2023-11-19T07:01:40;94722.91;;;2.96;84.05
23176;BME280;19910;42.652;23.332;2023-11-19T07:04:11;94731.47;;;2.98;83.33
23176;BME280;19910;42.652;23.332;2023-11-19T07:06:38;94731.94;;;3.05;83.31
23176;BME280;19910;42.652;23.332;2023-11-19T07:09:06;94720.25;;;2.91;83.98
23176;BME280;19910;42.652;23.332;2023-11-19T07:11:36;94740.03;;;3.00;83.74
23176;BME280;19910;42.652;23.332;2023-11-19T07:14:04;94744.59;;;2.94;83.23
23176;BME280;19910;42.652;23.332;2023-11-19T07:16:32;94736.31;;;2.91;83.69
23176;BME280;19910;42.652;23.332;2023-11-19T07:18:59;94729.88;;;2.92;83.60
23176;BME280;19910;42.652;23.332;2023-11-19T07:21:31;94747.00;;;2.96;82.96
23176;BME280;19910;42.652;23.332;2023-11-19T07:23:58;94742.72;;;2.90;82.82
23176;BME280;19910;42.652;23.332;2023-11-19T07:26:25;94752.88;;;2.98;82.98
23176;BME280;19910;42.652;23.332;2023-11-19T07:28:52;94744.44;;;3.19;82.98
23176;BME280;19910;42.652;23.332;2023-11-19T07:31:22;94755.91;;;3.25;82.67
23176;BME280;19910;42.652;23.332;2023-11-19T07:33:49;94749.06;;;3.09;81.84
23176;BME280;19910;42.652;23.332;2023-11-19T07:36:16;94774.22;;;3.03;82.25
23176;BME280;19910;42.652;23.332;2023-11-19T07:38:45;94772.41;;;2.93;82.26
23176;BME280;19910;42.652;23.332;2023-11-19T07:41:13;94770.00;;;2.92;82.52
23176;BME280;19910;42.652;23.332;2023-11-19T07:43:40;94770.47;;;3.09;82.10
23176;BME280;19910;42.652;23.332;2023-11-19T07:46:13;94773.75;;;2.96;82.56
23176;BME280;19910;42.652;23.332;2023-11-19T07:48:40;94765.78;;;2.85;81.86
23176;BME280;19910;42.652;23.332;2023-11-19T07:51:08;94771.88;;;2.96;81.87
23176;BME280;19910;42.652;23.332;2023-11-19T07:53:38;94776.72;;;2.89;81.54
23176;BME280;19910;42.652;23.332;2023-11-19T07:56:09;94791.97;;;2.89;80.93
23176;BME280;19910;42.652;23.332;2023-11-19T07:58:37;94801.03;;;2.93;81.80
23176;BME280;19910;42.652;23.332;2023-11-19T08:01:05;94786.00;;;3.02;80.77
23176;BME280;19910;42.652;23.332;2023-11-19T08:03:32;94781.78;;;2.96;80.78
23176;BME280;19910;42.652;23.332;2023-11-19T08:05:59;94799.47;;;2.87;81.11
23176;BME280;19910;42.652;23.332;2023-11-19T08:08:26;94803.22;;;2.85;81.12
23176;BME280;19910;42.652;23.332;2023-11-19T08:10:55;94803.22;;;2.85;82.09
23176;BME280;19910;42.652;23.332;2023-11-19T08:13:24;94795.16;;;2.91;81.35
23176;BME280;19910;42.652;23.332;2023-11-19T08:15:53;94802.38;;;2.90;81.33
23176;BME280;19910;42.652;23.332;2023-11-19T08:18:20;94799.19;;;2.88;81.01
23176;BME280;19910;42.652;23.332;2023-11-19T08:20:46;94807.53;;;2.81;81.29
23176;BME280;19910;42.652;23.332;2023-11-19T08:23:21;94820.28;;;3.00;81.19
23176;BME280;19910;42.652;23.332;2023-11-19T08:25:51;94805.03;;;3.00;81.11
23176;BME280;19910;42.652;23.332;2023-11-19T08:28:17;94819.16;;;3.06;81.40
23176;BME280;19910;42.652;23.332;2023-11-19T08:30:46;94812.81;;;2.92;81.28
23176;BME280;19910;42.652;23.332;2023-11-19T08:33:12;94803.25;;;2.80;81.69
23176;BME280;19910;42.652;23.332;2023-11-19T08:35:40;94798.91;;;2.90;82.11
23176;BME280;19910;42.652;23.332;2023-11-19T08:38:07;94807.13;;;3.03;82.07
23176;BME280;19910;42.652;23.332;2023-11-19T08:40:34;94825.06;;;3.03;81.12
23176;BME280;19910;42.652;23.332;2023-11-19T08:43:01;94815.41;;;3.07;81.36
23176;BME280;19910;42.652;23.332;2023-11-19T08:45:27;94807.31;;;3.22;80.67
23176;BME280;19910;42.652;23.332;2023-11-19T08:47:56;94811.13;;;3.11;80.19
23176;BME280;19910;42.652;23.332;2023-11-19T08:50:23;94798.28;;;3.13;80.47
23176;BME280;19910;42.652;23.332;2023-11-19T08:52:51;94802.38;;;3.39;79.77
23176;BME280;19910;42.652;23.332;2023-11-19T08:55:18;94811.50;;;3.38;78.83
23176;BME280;19910;42.652;23.332;2023-11-19T08:57:45;94813.13;;;3.29;78.65
23176;BME280;19910;42.652;23.332;2023-11-19T09:00:13;94812.53;;;3.42;78.49
23176;BME280;19910;42.652;23.332;2023-11-19T09:02:57;94801.00;;;3.42;78.41
23176;BME280;19910;42.652;23.332;2023-11-19T09:05:24;94803.38;;;3.53;78.38
23176;BME280;19910;42.652;23.332;2023-11-19T09:07:51;94794.72;;;3.62;77.38
23176;BME280;19910;42.652;23.332;2023-11-19T09:10:18;94798.19;;;3.67;77.48
23176;BME280;19910;42.652;23.332;2023-11-19T09:12:47;94786.97;;;3.60;77.82
23176;BME280;19910;42.652;23.332;2023-11-19T09:15:13;94778.44;;;3.87;76.79
23176;BME280;19910;42.652;23.332;2023-11-19T09:17:40;94776.03;;;4.14;75.89
23176;BME280;19910;42.652;23.332;2023-11-19T09:20:12;94769.75;;;4.00;76.60
23176;BME280;19910;42.652;23.332;2023-11-19T09:22:40;94782.13;;;3.96;77.13
23176;BME280;19910;42.652;23.332;2023-11-19T09:25:07;94785.97;;;4.14;77.15
23176;BME280;19910;42.652;23.332;2023-11-19T09:27:34;94792.31;;;3.94;77.22
23176;BME280;19910;42.652;23.332;2023-11-19T09:30:01;94793.44;;;3.88;77.20
23176;BME280;19910;42.652;23.332;2023-11-19T09:32:29;94785.78;;;4.05;76.01
23176;BME280;19910;42.652;23.332;2023-11-19T09:34:56;94788.88;;;4.17;75.63
23176;BME280;19910;42.652;23.332;2023-11-19T09:37:24;94774.69;;;4.41;75.12
23176;BME280;19910;42.652;23.332;2023-11-19T09:39:51;94761.38;;;4.07;74.90
23176;BME280;19910;42.652;23.332;2023-11-19T09:42:18;94759.16;;;4.38;74.95
23176;BME280;19910;42.652;23.332;2023-11-19T09:44:47;94750.13;;;4.52;74.91
23176;BME280;19910;42.652;23.332;2023-11-19T09:47:16;94757.59;;;4.37;74.74
23176;BME280;19910;42.652;23.332;2023-11-19T09:49:43;94742.06;;;4.34;75.00
23176;BME280;19910;42.652;23.332;2023-11-19T09:52:11;94735.66;;;4.29;76.18
23176;BME280;19910;42.652;23.332;2023-11-19T09:54:39;94730.47;;;4.62;75.52
23176;BME280;19910;42.652;23.332;2023-11-19T09:57:06;94724.31;;;4.80;74.02
23176;BME280;19910;42.652;23.332;2023-11-19T09:59:36;94724.19;;;4.90;73.38
23176;BME280;19910;42.652;23.332;2023-11-19T10:02:03;94729.34;;;4.87;74.22
23176;BME280;19910;42.652;23.332;2023-11-19T10:04:32;94733.41;;;5.03;73.05
23176;BME280;19910;42.652;23.332;2023-11-19T10:07:02;94726.84;;;4.72;73.51
23176;BME280;19910;42.652;23.332;2023-11-19T10:09:29;94728.25;;;5.07;72.87
23176;BME280;19910;42.652;23.332;2023-11-19T10:11:58;94725.31;;;5.59;71.15
23176;BME280;19910;42.652;23.332;2023-11-19T10:14:25;94716.13;;;5.60;71.72
23176;BME280;19910;42.652;23.332;2023-11-19T10:16:54;94714.09;;;5.20;72.07
23176;BME280;19910;42.652;23.332;2023-11-19T10:19:24;94728.63;;;5.19;71.76
23176;BME280;19910;42.652;23.332;2023-11-19T10:21:51;94731.16;;;5.29;72.60
23176;BME280;19910;42.652;23.332;2023-11-19T10:24:31;94735.38;;;5.16;71.67
23176;BME280;19910;42.652;23.332;2023-11-19T10:27:00;94729.41;;;5.00;71.71
23176;BME280;19910;42.652;23.332;2023-11-19T10:29:29;94713.88;;;4.97;72.09
23176;BME280;19910;42.652;23.332;2023-11-19T10:31:57;94719.78;;;4.57;72.90
23176;BME280;19910;42.652;23.332;2023-11-19T10:34:27;94706.25;;;4.67;73.29
23176;BME280;19910;42.652;23.332;2023-11-19T10:36:55;94689.56;;;4.70;72.94
23176;BME280;19910;42.652;23.332;2023-11-19T10:39:22;94696.91;;;4.83;72.51
23176;BME280;19910;42.652;23.332;2023-11-19T10:41:51;94697.75;;;4.60;72.76
23176;BME280;19910;42.652;23.332;2023-11-19T10:44:33;94706.75;;;5.07;71.52
23176;BME280;19910;42.652;23.332;2023-11-19T10:47:07;94711.56;;;5.10;71.77
23176;BME280;19910;42.652;23.332;2023-11-19T10:49:34;94707.94;;;5.00;71.99
23176;BME280;19910;42.652;23.332;2023-11-19T10:52:02;94700.69;;;5.01;72.13
23176;BME280;19910;42.652;23.332;2023-11-19T10:54:31;94711.47;;;4.96;72.15
23176;BME280;19910;42.652;23.332;2023-11-19T10:56:59;94678.69;;;4.80;72.36
23176;BME280;19910;42.652;23.332;2023-11-19T10:59:30;94688.06;;;4.83;71.98
23176;BME280;19910;42.652;23.332;2023-11-19T11:02:09;94694.41;;;4.68;72.55
23176;BME280;19910;42.652;23.332;2023-11-19T11:04:39;94683.13;;;4.71;72.12
23176;BME280;19910;42.652;23.332;2023-11-19T11:07:07;94685.44;;;4.59;72.61
23176;BME280;19910;42.652;23.332;2023-11-19T11:09:35;94676.66;;;4.72;71.83
23176;BME280;19910;42.652;23.332;2023-11-19T11:12:04;94673.84;;;4.82;72.21
23176;BME280;19910;42.652;23.332;2023-11-19T11:14:34;94668.97;;;4.84;72.36
23176;BME280;19910;42.652;23.332;2023-11-19T11:17:08;94674.31;;;5.22;71.45
23176;BME280;19910;42.652;23.332;2023-11-19T11:19:36;94667.69;;;5.00;70.95
23176;BME280;19910;42.652;23.332;2023-11-19T11:22:04;94680.78;;;5.21;71.21
23176;BME280;19910;42.652;23.332;2023-11-19T11:24:51;94673.97;;;5.10;71.04
23176;BME280;19910;42.652;23.332;2023-11-19T11:27:39;94680.72;;;5.07;70.88
23176;BME280;19910;42.652;23.332;2023-11-19T11:30:20;94677.31;;;5.02;71.14
23176;BME280;19910;42.652;23.332;2023-11-19T11:33:18;94670.03;;;5.21;71.31
23176;BME280;19910;42.652;23.332;2023-11-19T11:35:55;94667.59;;;5.06;71.62
23176;BME280;19910;42.652;23.332;2023-11-19T11:38:27;94677.47;;;4.91;72.17
23176;BME280;19910;42.652;23.332;2023-11-19T11:41:17;94654.19;;;5.06;71.09
23176;BME280;19910;42.652;23.332;2023-11-19T11:43:47;94645.53;;;5.09;71.59
23176;BME280;19910;42.652;23.332;2023-11-19T11:49:25;94633.81;;;5.05;71.54
23176;BME280;19910;42.652;23.332;2023-11-19T11:51:59;94628.94;;;4.88;71.64
23176;BME280;19910;42.652;23.332;2023-11-19T11:54:28;94634.22;;;4.93;71.92
23176;BME280;19910;42.652;23.332;2023-11-19T11:57:03;94640.03;;;4.81;71.36
23176;BME280;19910;42.652;23.332;2023-11-19T11:59:42;94655.88;;;4.64;72.87
23176;BME280;19910;42.652;23.332;2023-11-19T12:02:11;94652.59;;;4.86;72.85
23176;BME280;19910;42.652;23.332;2023-11-19T12:04:41;94660.13;;;4.84;72.88
23176;BME280;19910;42.652;23.332;2023-11-19T12:07:11;94656.28;;;4.71;72.24
23176;BME280;19910;42.652;23.332;2023-11-19T12:09:41;94658.31;;;4.79;72.59
23176;BME280;19910;42.652;23.332;2023-11-19T12:12:22;94654.03;;;4.97;71.40
23176;BME280;19910;42.652;23.332;2023-11-19T12:15:04;94632.88;;;5.28;70.73
23176;BME280;19910;42.652;23.332;2023-11-19T12:17:47;94633.25;;;5.21;69.71
23176;BME280;19910;42.652;23.332;2023-11-19T12:20:17;94632.44;;;5.21;70.33
23176;BME280;19910;42.652;23.332;2023-11-19T12:22:45;94628.31;;;5.28;70.34
23176;BME280;19910;42.652;23.332;2023-11-19T12:25:15;94624.25;;;5.31;69.59
23176;BME280;19910;42.652;23.332;2023-11-19T12:27:44;94614.91;;;5.42;69.39
23176;BME280;19910;42.652;23.332;2023-11-19T12:30:12;94613.81;;;5.43;68.68
23176;BME280;19910;42.652;23.332;2023-11-19T12:32:44;94622.56;;;5.49;68.48
23176;BME280;19910;42.652;23.332;2023-11-19T12:35:12;94607.25;;;5.49;68.89
23176;BME280;19910;42.652;23.332;2023-11-19T12:37:41;94601.53;;;5.69;68.22
23176;BME280;19910;42.652;23.332;2023-11-19T12:40:15;94599.03;;;5.59;67.03
23176;BME280;19910;42.652;23.332;2023-11-19T12:42:43;94595.56;;;5.72;67.08
23176;BME280;19910;42.652;23.332;2023-11-19T12:45:09;94608.28;;;5.67;67.53
23176;BME280;19910;42.652;23.332;2023-11-19T12:47:38;94596.94;;;5.56;67.96
23176;BME280;19910;42.652;23.332;2023-11-19T12:50:05;94594.47;;;5.60;69.05
23176;BME280;19910;42.652;23.332;2023-11-19T12:52:33;94593.69;;;5.27;70.02
23176;BME280;19910;42.652;23.332;2023-11-19T12:55:02;94593.94;;;5.12;71.21
23176;BME280;19910;42.652;23.332;2023-11-19T12:57:39;94592.44;;;5.06;71.94
23176;BME280;19910;42.652;23.332;2023-11-19T13:00:07;94595.13;;;5.06;72.65
23176;BME280;19910;42.652;23.332;2023-11-19T13:02:46;94587.25;;;5.09;72.60
23176;BME280;19910;42.652;23.332;2023-11-19T13:05:27;94589.59;;;5.16;72.02
23176;BME280;19910;42.652;23.332;2023-11-19T13:07:59;94588.50;;;5.17;71.72
23176;BME280;19910;42.652;23.332;2023-11-19T13:10:28;94578.84;;;5.16;71.86